createdAt,value
2018-05-03T17:48:35.807Z,8.40
2018-05-03T17:51:03.521Z,8.50
2018-05-03T17:53:31.105Z,8.20
2018-05-03T17:55:58.784Z,8.30
2018-05-03T17:58:26.427Z,8.30
2018-05-03T18:00:54.063Z,8.30
2018-05-03T18:03:21.795Z,8.40
2018-05-03T18:05:49.421Z,8.50
2018-05-03T18:08:17.077Z,8.30
2018-05-03T18:10:44.810Z,8.30
2018-05-03T18:13:12.857Z,8.30
2018-05-03T18:15:42.205Z,8.30
2018-05-03T18:18:09.915Z,8.20
2018-05-03T18:20:37.613Z,8.20
2018-05-03T18:23:05.299Z,8.20
2018-05-03T18:25:32.996Z,8.30
2018-05-03T18:28:00.647Z,8.10
2018-05-03T18:30:28.279Z,8.10
2018-05-03T18:32:56.059Z,8.20
2018-05-03T18:35:23.685Z,8.10
2018-05-03T18:37:51.321Z,8.10
2018-05-03T18:40:19.115Z,8.10
2018-05-03T18:42:46.750Z,8.00
2018-05-03T18:45:14.454Z,7.90
2018-05-03T18:47:42.159Z,7.90
2018-05-03T18:50:09.821Z,7.80
2018-05-03T18:52:37.476Z,7.90
2018-05-03T18:55:05.190Z,7.70
2018-05-03T18:57:32.828Z,7.80
2018-05-03T19:00:01.241Z,7.60
2018-05-03T19:02:28.943Z,7.60
2018-05-03T19:04:56.570Z,7.60
2018-05-03T19:07:24.204Z,7.50
2018-05-03T19:09:52.655Z,7.30
2018-05-03T19:12:20.279Z,7.30
2018-05-03T19:14:47.904Z,7.40
2018-05-03T19:17:16.384Z,7.30
2018-05-03T19:19:44.781Z,7.30
2018-05-03T19:22:12.402Z,7.20
2018-05-03T19:24:40.151Z,7.30
2018-05-03T19:27:07.778Z,7.40
2018-05-03T19:29:35.431Z,7.30
2018-05-03T19:32:03.895Z,7.30
2018-05-03T19:34:32.343Z,7.20
2018-05-03T19:37:00.919Z,7.20
2018-05-03T19:39:28.643Z,7.20
2018-05-03T19:41:56.285Z,7.30
2018-05-03T19:44:24.689Z,7.20
2018-05-03T19:46:52.404Z,7.20
2018-05-03T19:49:20.049Z,6.90
2018-05-03T19:51:47.687Z,7.00
2018-05-03T19:54:15.377Z,7.00
2018-05-03T19:56:43.041Z,7.30
2018-05-03T19:59:10.716Z,7.10
2018-05-03T20:01:38.439Z,7.10
2018-05-03T20:04:06.269Z,7.30
2018-05-03T20:06:33.903Z,7.30
2018-05-03T20:09:01.619Z,6.70
2018-05-03T20:11:29.327Z,6.70
2018-05-03T20:13:56.983Z,6.20
2018-05-03T20:16:24.711Z,6.10
2018-05-03T20:18:52.347Z,6.20
